Informes de METAR cercanos

 

LEXJ - Santander/Parayas, Spain
Distance from station: ESE 6km
Actualización: 26/05/2020 07:30
Despejado
Despejado
 Viento del varies
Viento: varies 2 km/h
Temperatura: 13°C
Rocío: 13°C
Humedad: 100%
Barómetro: 1030 hPa
Clouds: Despejado
Visibilidad: 7 km
2020/05/26 05:30 LEXJ 260530Z AUTO VRB01KT 7000 NCD 13/13 Q1030
LEBB - Bilbao/Sondica, Spain
Distance from station: ESE 80km
Actualización: 26/05/2020 07:30
Despejado
Despejado
 Viento del ESE
Viento: ESE 4 km/h
Temperatura: 12°C
Rocío: 12°C
Humedad: 100%
Barómetro: 1030 hPa
Resumen: Despejado
Visibilidad: greater than 10 km
2020/05/26 05:30 LEBB 260530Z 12002KT CAVOK 12/12 Q1030 NOSIG
 
LEBL - Barcelona Airpor, Spain
Distance from station: ESE 726km
Actualización: 26/05/2020 07:30
Despejado
Despejado
 Viento del NO
Viento: NO 17 km/h
Temperatura: 18°C
Rocío: 14°C
Humedad: 78%
Barómetro: 1026 hPa
Resumen: Despejado
Visibilidad: greater than 10 km
2020/05/26 05:30 LEBL 260530Z 32009KT CAVOK 18/14 Q1026 NOSIG
LEMD - Madrid/Barajas, Spain
Distance from station: S 325km
Actualización: 26/05/2020 07:30
Despejado
Despejado
 Viento del varies
Viento: varies 4 km/h
Temperatura: 15°C
Rocío: 14°C
Humedad: 94%
Barómetro: 1026 hPa
Resumen: Despejado
Visibilidad: greater than 10 km
2020/05/26 05:30 LEMD 260530Z VRB02KT CAVOK 15/14 Q1026 NOSIG
 
LPPT - Lisbon/Portela, Portugal
Distance from station: SO 663km
Actualización: 26/05/2020 07:30
Despejado
Despejado
 Viento del varies
Viento: varies 2 km/h
Temperatura: 16°C
Rocío: 14°C
Humedad: 88%
Barómetro: 1020 hPa
Resumen: Despejado
Visibilidad: greater than 10 km
2020/05/26 05:30 LPPT 260530Z VRB01KT CAVOK 16/14 Q1020
LECO - La Coruna/Alvedr, Spain
Distance from station: O 349km
Actualización: 26/05/2020 07:30
Despejado
Despejado
 Viento del N
Viento: N 6 km/h
Temperatura: 15°C
Rocío: 11°C
Humedad: 77%
Barómetro: 1027 hPa
Resumen: Despejado
Visibilidad: greater than 10 km
2020/05/26 05:30 LECO 260530Z AUTO 35003KT 320V050 CAVOK 15/11 Q1027
 
LEST - Santiago/Labacol, Spain
Distance from station: O 358km
Actualización: 26/05/2020 07:30
Despejado
Despejado
 Viento del E
Viento: E 6 km/h
Temperatura: 13°C
Rocío: 6°C
Humedad: 63%
Barómetro: 1027 hPa
Resumen: Despejado
Visibilidad: greater than 10 km
2020/05/26 05:30 LEST 260530Z 08003KT 020V140 CAVOK 13/06 Q1027 NOSIG
EBBR - Brussels International Airport, Belgium
Distance from station: O 1339km
Actualización: 26/05/2020 07:20
Despejado
Despejado
 Viento del calm
Viento: Calma
Temperatura: 12°C
Rocío: 10°C
Humedad: 88%
Barómetro: 1035 hPa
Resumen: Despejado
Visibilidad: greater than 10 km
2020/05/26 05:20 EBBR 260520Z 00000KT CAVOK 12/10 Q1035 NOSIG